Time;durP1;ratioP1;P1;durP2;ratioP2;P2;SDS_P1;SDS_P2;PMS_P1;PMS_P2;Temp;Humidity;BMP_temperature;BMP_pressure;BME280_temperature;BME280_humidity;BME280_pressure;Samples;Min_cycle;Max_cycle;Signal;HPM_P1;HPM_P2
2022/01/02 00:01:08;;;;;;;288.30;188.40;;;;;;;3.96;93.57;98422.66;10377216;28;20064;-58
2022/01/02 00:06:08;;;;;;;334.98;209.52;;;;;;;3.92;93.19;98420.81;10377474;28;20057;-57
2022/01/02 00:11:10;;;;;;;318.75;206.05;;;;;;;3.92;93.21;98420.81;10377786;28;20064;-57
2022/01/02 00:16:11;;;;;;;342.70;221.40;;;;;;;3.92;93.01;98410.53;10372952;28;20075;-57
2022/01/02 00:21:11;;;;;;;310.23;205.57;;;;;;;3.92;93.14;98428.50;10376665;28;20068;-57
2022/01/02 00:26:16;;;;;;;222.60;138.45;;;;;;;3.75;93.99;98422.75;10376740;28;20471;-58
2022/01/02 00:31:15;;;;;;;203.23;131.27;;;;;;;3.78;93.42;98418.59;10375521;28;20080;-57
2022/01/02 00:36:14;;;;;;;;;;;;;;;3.82;93.24;98438.44;10374983;28;20927;-57
2022/01/02 00:41:20;;;;;;;223.80;135.20;;;;;;;3.86;92.94;98426.56;10376558;28;19959;-57
2022/01/02 00:46:21;;;;;;;186.70;119.68;;;;;;;3.73;92.46;98415.00;10376172;28;20068;-56
2022/01/02 00:51:42;;;;;;;201.50;125.22;;;;;;;3.75;92.63;98422.75;10375825;28;20064;-56
2022/01/02 00:56:46;;;;;;;199.05;125.70;;;;;;;3.73;92.75;98430.41;10375181;28;20072;-57
2022/01/02 01:01:51;;;;;;;213.48;127.68;;;;;;;3.67;92.46;98429.31;10376134;28;20060;-57
2022/01/02 01:06:56;;;;;;;224.27;139.35;;;;;;;3.60;92.29;98435.91;10375469;28;20064;-57
2022/01/02 01:11:58;;;;;;;255.10;161.80;;;;;;;3.52;93.01;98430.47;10375825;28;20467;-57
2022/01/02 01:16:58;;;;;;;212.68;130.30;;;;;;;3.44;92.62;98442.13;10375251;28;20072;-57
2022/01/02 01:21:57;;;;;;;;;;;;;;;3.30;92.54;98444.16;10375518;28;20439;-57
2022/01/02 01:26:57;;;;;;;211.43;129.75;;;;;;;3.22;92.54;98436.19;10375270;28;20651;-57
2022/01/02 01:31:55;;;;;;;215.57;132.10;;;;;;;3.16;92.00;98435.94;10374924;28;20072;-56
2022/01/02 01:36:55;;;;;;;214.77;131.38;;;;;;;3.09;92.49;98431.38;10375013;28;20087;-57
2022/01/02 01:41:55;;;;;;;233.57;140.90;;;;;;;3.00;92.72;98446.41;10374430;28;20073;-57
2022/01/02 01:46:55;;;;;;;263.10;153.10;;;;;;;3.01;92.91;98440.47;10374709;28;20183;-57
2022/01/02 01:51:55;;;;;;;262.23;156.60;;;;;;;3.01;92.90;98446.47;10374269;28;20480;-57
2022/01/02 01:56:54;;;;;;;;;;;;;;;3.07;92.58;98442.41;10374760;28;20578;-57
2022/01/02 02:01:53;;;;;;;274.75;159.48;;;;;;;3.13;92.46;98442.66;10374469;28;20349;-57
2022/01/02 02:06:54;;;;;;;293.50;174.70;;;;;;;3.10;92.63;98434.84;10374403;28;20044;-56
2022/01/02 02:11:58;;;;;;;297.30;183.00;;;;;;;3.09;92.10;98438.19;10381226;28;20072;-57
2022/01/02 02:16:58;;;;;;;280.20;171.45;;;;;;;3.00;92.11;98424.22;10383572;28;20083;-57
2022/01/02 02:21:57;;;;;;;;;;;;;;;2.84;92.38;98446.59;10382766;28;20079;-57
2022/01/02 02:26:56;;;;;;;306.08;177.38;;;;;;;2.69;92.58;98442.59;10381922;28;19908;-56
2022/01/02 02:31:56;;;;;;;287.63;173.25;;;;;;;2.71;92.56;98465.75;10381955;28;20091;-57
2022/01/02 02:36:55;;;;;;;269.73;160.95;;;;;;;2.69;92.79;98460.53;10381524;28;20076;-57
2022/01/02 02:41:54;;;;;;;214.77;135.32;;;;;;;2.71;92.70;98466.59;10381298;28;20033;-56
2022/01/02 02:52:24;;;;;;;204.23;125.65;;;;;;;2.63;92.74;98460.31;10381773;28;20064;-56
2022/01/02 02:57:23;;;;;;;185.13;115.45;;;;;;;2.72;92.71;98472.59;10381737;28;20084;-56
2022/01/02 03:02:22;;;;;;;190.15;117.75;;;;;;;2.82;92.17;98474.75;10381184;28;20079;-57
2022/01/02 03:07:21;;;;;;;193.35;118.18;;;;;;;2.86;92.38;98475.72;10380904;28;20033;-56
2022/01/02 03:12:20;;;;;;;235.60;149.75;;;;;;;2.82;92.56;98477.31;10380169;28;20033;-56
2022/01/02 03:17:19;;;;;;;146.57;89.38;;;;;;;2.84;92.34;98479.91;10379679;28;20043;-57
2022/01/02 03:22:18;;;;;;;132.60;88.53;;;;;;;2.79;92.73;98484.84;10380036;28;20029;-56
2022/01/02 03:27:17;;;;;;;149.57;98.43;;;;;;;2.77;92.80;98491.63;10380234;28;20035;-57
2022/01/02 03:32:16;;;;;;;148.82;95.97;;;;;;;2.82;92.48;98497.81;10379464;28;20074;-57
2022/01/02 03:37:15;;;;;;;130.75;82.18;;;;;;;2.79;92.56;98496.00;10379837;28;20573;-57
2022/01/02 03:42:14;;;;;;;119.20;71.93;;;;;;;2.84;92.28;98495.28;10379099;28;20488;-56
2022/01/02 03:47:13;;;;;;;122.18;76.22;;;;;;;2.96;91.77;98499.25;10379418;28;20076;-56
2022/01/02 03:52:12;;;;;;;105.25;66.75;;;;;;;3.06;92.23;98484.25;10379097;28;20056;-56
2022/01/02 03:57:11;;;;;;;116.97;74.90;;;;;;;3.16;91.94;98483.78;10378577;28;20037;-57
2022/01/02 04:02:10;;;;;;;113.97;75.90;;;;;;;3.26;92.07;98498.75;10378391;28;20078;-56
2022/01/02 04:07:09;;;;;;;128.80;85.55;;;;;;;3.39;91.85;98515.50;10377874;28;20076;-56
2022/01/02 04:12:08;;;;;;;131.23;88.35;;;;;;;3.39;91.85;98506.09;10378839;28;20072;-57
2022/01/02 04:17:07;;;;;;;145.65;95.72;;;;;;;3.51;92.02;98528.78;10378377;28;20075;-56
2022/01/02 04:22:06;;;;;;;159.70;104.70;;;;;;;3.62;91.83;98529.22;10378186;28;20032;-57
2022/01/02 04:27:05;;;;;;;159.98;105.20;;;;;;;3.71;91.82;98516.75;10377776;28;20408;-56
2022/01/02 04:32:04;;;;;;;150.95;102.65;;;;;;;3.81;91.81;98526.53;10376661;28;20085;-56
2022/01/02 04:37:05;;;;;;;165.98;107.78;;;;;;;3.89;91.86;98528.50;10377541;28;20067;-57
2022/01/02 04:42:04;;;;;;;201.68;131.32;;;;;;;3.93;91.81;98526.13;10377195;28;20079;-56
2022/01/02 04:47:03;;;;;;;180.52;120.15;;;;;;;3.81;91.77;98521.41;10375812;28;20102;-56
2022/01/02 04:52:03;;;;;;;186.32;126.28;;;;;;;3.82;92.15;98529.97;10376580;28;20065;-56
2022/01/02 04:57:02;;;;;;;198.95;129.80;;;;;;;3.76;92.06;98522.91;10375238;28;20088;-56
2022/01/02 05:02:01;;;;;;;234.85;152.48;;;;;;;3.64;92.02;98517.31;10374364;28;20067;-56
2022/01/02 05:07:00;;;;;;;263.60;177.13;;;;;;;3.65;92.08;98524.19;10376034;28;20043;-56
2022/01/02 05:11:59;;;;;;;424.40;277.77;;;;;;;3.67;91.54;98522.56;10374886;28;20415;-56
2022/01/02 05:16:58;;;;;;;309.80;202.70;;;;;;;3.66;91.65;98531.09;10374478;28;20068;-56
2022/01/02 05:21:57;;;;;;;258.02;165.30;;;;;;;3.69;91.40;98520.06;10374364;28;20025;-56
2022/01/02 05:26:56;;;;;;;;;;;;;;;3.64;91.37;98528.47;10373895;28;20068;-57
2022/01/02 05:31:55;;;;;;;214.40;136.25;;;;;;;3.64;91.00;98533.59;10373147;28;19923;-56
2022/01/02 05:36:54;;;;;;;218.05;135.90;;;;;;;3.65;91.06;98539.59;10375426;28;20100;-57
2022/01/02 05:41:53;;;;;;;213.95;136.13;;;;;;;3.67;91.34;98535.41;10374805;28;20047;-57
2022/01/02 05:46:53;;;;;;;211.30;133.80;;;;;;;3.65;90.57;98535.34;10374866;28;20079;-56
2022/01/02 05:51:52;;;;;;;201.30;121.93;;;;;;;3.61;90.62;98547.97;10374963;28;20075;-56
2022/01/02 05:56:51;;;;;;;255.13;157.70;;;;;;;3.53;90.66;98544.25;10374792;28;20068;-56
2022/01/02 06:01:50;;;;;;;269.77;166.90;;;;;;;3.49;90.73;98550.06;10373678;28;20099;-56
2022/01/02 06:06:49;;;;;;;271.20;165.27;;;;;;;3.41;90.20;98544.66;10374198;28;20032;-56
2022/01/02 06:11:48;;;;;;;249.10;152.45;;;;;;;3.13;90.51;98533.28;10374134;28;20366;-56
2022/01/02 06:16:47;;;;;;;220.75;138.45;;;;;;;3.11;90.23;98565.66;10373906;28;20033;-56
2022/01/02 06:21:46;;;;;;;209.70;136.30;;;;;;;3.00;89.66;98567.81;10374398;28;20033;-56
2022/01/02 06:26:45;;;;;;;223.45;145.73;;;;;;;2.93;89.62;98582.84;10373725;28;20031;-56
2022/01/02 06:31:44;;;;;;;225.40;142.27;;;;;;;2.87;89.66;98580.91;10373982;28;20567;-56
2022/01/02 06:36:43;;;;;;;232.98;145.60;;;;;;;2.80;89.99;98587.44;10372020;28;20405;-56
2022/01/02 06:41:42;;;;;;;223.65;141.77;;;;;;;2.80;89.67;98592.56;10372396;28;20041;-56
2022/01/02 06:46:41;;;;;;;246.23;154.18;;;;;;;2.77;89.66;98599.28;10372954;28;20498;-56
2022/01/02 06:51:40;;;;;;;339.15;212.80;;;;;;;2.73;90.04;98612.75;10371218;28;20076;-56
2022/01/02 06:56:39;;;;;;;352.50;232.73;;;;;;;2.34;90.47;98554.69;10376185;28;20029;-56
2022/01/02 07:01:38;;;;;;;423.60;269.67;;;;;;;2.68;90.58;98620.25;10377684;28;20052;-56
2022/01/02 07:06:37;;;;;;;435.75;280.85;;;;;;;2.82;90.75;98618.28;10378291;28;20040;-56
2022/01/02 07:11:36;;;;;;;430.05;278.92;;;;;;;2.95;90.60;98627.38;10376338;28;20076;-56
2022/01/02 07:16:35;;;;;;;424.15;281.50;;;;;;;3.13;90.66;98634.97;10375803;28;20029;-56
2022/01/02 07:21:34;;;;;;;439.45;285.77;;;;;;;3.04;90.55;98580.75;10377263;28;20508;-56
2022/01/02 07:26:33;;;;;;;440.50;290.48;;;;;;;3.46;90.96;98632.94;10377731;28;20067;-56
2022/01/02 07:31:32;;;;;;;385.10;257.77;;;;;;;3.63;90.56;98634.50;10376265;28;20052;-56
2022/01/02 07:36:31;;;;;;;439.88;281.60;;;;;;;3.77;90.82;98626.47;10376482;28;20065;-56
2022/01/02 07:41:30;;;;;;;455.65;294.55;;;;;;;3.93;91.02;98638.22;10377937;28;20037;-56
2022/01/02 07:46:31;;;;;;;456.02;311.88;;;;;;;3.86;90.69;98596.91;10377398;28;20039;-57
2022/01/02 07:51:31;;;;;;;358.60;243.85;;;;;;;4.12;90.56;98644.97;10373827;28;20068;-56
2022/01/02 07:56:30;;;;;;;328.17;223.60;;;;;;;4.17;90.56;98646.88;10374951;28;20477;-56
2022/01/02 08:01:29;;;;;;;313.20;214.30;;;;;;;4.27;90.55;98641.28;10372775;28;20057;-56
2022/01/02 08:06:28;;;;;;;237.95;156.45;;;;;;;4.39;90.59;98635.75;10372733;28;20029;-56
2022/01/02 08:11:27;;;;;;;217.07;144.20;;;;;;;4.50;90.15;98630.97;10374851;28;20488;-57
2022/01/02 08:16:26;;;;;;;227.82;152.23;;;;;;;4.52;90.50;98637.06;10375259;28;20027;-57
2022/01/02 08:21:25;;;;;;;;;;;;;;;4.65;90.81;98648.69;10375598;28;20076;-57
2022/01/02 08:26:24;;;;;;;173.70;115.95;;;;;;;4.76;90.92;98636.19;10377463;28;19908;-56
2022/01/02 08:31:23;;;;;;;184.15;124.22;;;;;;;5.00;90.85;98644.84;10374772;28;20141;-57
2022/01/02 08:36:22;;;;;;;198.85;130.50;;;;;;;5.10;90.54;98639.19;10375845;28;20392;-57
2022/01/02 08:41:21;;;;;;;194.40;135.40;;;;;;;5.20;91.13;98636.94;10374962;28;20076;-56
2022/01/02 08:46:20;;;;;;;205.40;141.98;;;;;;;5.41;91.03;98641.94;10369781;28;20079;-56
2022/01/02 08:51:19;;;;;;;211.27;148.20;;;;;;;5.57;90.50;98630.47;10372973;28;20035;-57
2022/01/02 08:56:19;;;;;;;185.43;128.98;;;;;;;5.59;91.54;98633.97;10372586;28;20431;-57
2022/01/02 09:01:18;;;;;;;167.60;113.57;;;;;;;5.75;91.75;98631.06;10372687;28;20427;-57
2022/01/02 09:06:17;;;;;;;145.18;99.28;;;;;;;5.95;91.50;98626.53;10369851;28;20040;-57
2022/01/02 09:11:16;;;;;;;137.15;95.32;;;;;;;6.13;90.87;98618.50;10373205;28;20056;-57
2022/01/02 09:16:16;;;;;;;132.32;90.88;;;;;;;6.20;90.75;98599.81;10371543;28;20072;-57
2022/01/02 09:21:15;;;;;;;129.57;87.65;;;;;;;6.34;90.58;98577.88;10371695;28;20414;-57
2022/01/02 09:26:14;;;;;;;123.30;86.38;;;;;;;6.63;89.81;98592.44;10371177;28;20412;-57
2022/01/02 09:31:13;;;;;;;114.18;75.07;;;;;;;6.70;90.18;98587.50;10369571;28;20140;-57
2022/01/02 09:36:12;;;;;;;103.50;72.68;;;;;;;6.93;89.80;98574.34;10371477;28;20116;-57
2022/01/02 09:41:11;;;;;;;105.68;73.90;;;;;;;7.09;89.68;98553.28;10371622;28;20774;-57
2022/01/02 09:46:11;;;;;;;117.88;82.72;;;;;;;7.27;89.24;98559.75;10370705;28;20086;-57
2022/01/02 09:51:10;;;;;;;90.60;65.18;;;;;;;7.42;88.87;98550.69;10371711;28;20563;-56
2022/01/02 09:56:09;;;;;;;99.32;71.53;;;;;;;7.60;87.99;98544.22;10371030;28;20056;-56
2022/01/02 10:01:19;;;;;;;110.13;81.30;;;;;;;7.72;87.97;98528.13;10371582;28;20065;-56
2022/01/02 10:06:18;;;;;;;147.90;112.82;;;;;;;7.93;87.37;98530.31;10368299;28;20068;-56
2022/01/02 10:11:25;;;;;;;183.98;143.05;;;;;;;8.03;87.32;98520.19;10369059;28;20110;-56
2022/01/02 10:16:40;;;;;;;175.88;139.10;;;;;;;8.23;86.60;98519.78;10369314;28;20068;-56
2022/01/02 10:21:39;;;;;;;140.77;112.65;;;;;;;8.46;85.47;98504.72;10368327;28;20064;-57
2022/01/02 10:26:39;;;;;;;134.27;106.25;;;;;;;8.67;84.96;98493.91;10367623;28;20040;-56
2022/01/02 10:31:39;;;;;;;123.22;99.50;;;;;;;8.85;84.84;98489.03;10374195;28;20735;-56
2022/01/02 10:36:40;;;;;;;122.20;97.75;;;;;;;8.94;84.82;98457.28;10379292;28;20068;-56
2022/01/02 10:41:45;;;;;;;114.40;91.60;;;;;;;9.20;84.08;98468.03;10377130;28;20112;-56
2022/01/02 10:47:11;;;;;;;102.75;84.47;;;;;;;9.37;82.99;98468.34;10377257;28;20072;-56
2022/01/02 10:52:25;;;;;;;100.65;83.28;;;;;;;9.57;81.86;98455.69;10375544;28;20121;-56
2022/01/02 10:57:24;;;;;;;96.90;78.05;;;;;;;9.66;80.73;98445.44;10374715;28;20116;-56
2022/01/02 11:02:25;;;;;;;;;;;;;;;9.96;78.40;98457.09;10377065;28;20132;-56
2022/01/02 11:07:26;;;;;;;91.93;71.78;;;;;;;10.16;77.71;98452.13;10377550;28;19944;-57
2022/01/02 11:12:25;;;;;;;44.95;35.40;;;;;;;10.30;76.36;98447.09;10377637;28;20543;-56
2022/01/02 11:17:24;;;;;;;31.70;25.60;;;;;;;10.42;76.57;98423.88;10377798;28;20491;-57
2022/01/02 11:22:33;;;;;;;27.88;22.23;;;;;;;10.77;74.93;98431.13;10377446;28;20132;-56
2022/01/02 11:27:51;;;;;;;32.90;26.70;;;;;;;10.89;74.23;98420.88;10377158;28;20056;-56
2022/01/02 11:33:12;;;;;;;30.30;23.60;;;;;;;11.10;73.57;98419.31;10374199;28;20076;-56
2022/01/02 11:38:11;;;;;;;32.08;24.77;;;;;;;11.21;72.35;98402.94;10364899;28;20072;-56
2022/01/02 11:43:37;;;;;;;32.33;25.50;;;;;;;11.34;72.17;98398.72;10375567;28;20087;-56
2022/01/02 11:48:36;;;;;;;32.83;24.85;;;;;;;11.42;70.63;98393.56;10373815;28;20563;-56
2022/01/02 11:53:51;;;;;;;37.92;30.25;;;;;;;11.51;70.17;98382.34;10376452;28;20035;-56
2022/01/02 11:58:50;;;;;;;37.58;30.15;;;;;;;11.64;67.45;98381.53;10375812;28;20064;-57
2022/01/02 12:03:50;;;;;;;38.03;29.23;;;;;;;11.83;67.19;98380.78;10343957;28;20077;-57
2022/01/02 12:08:53;;;;;;;37.95;30.92;;;;;;;11.95;66.09;98376.50;10368799;28;20463;-57
2022/01/02 12:14:10;;;;;;;41.33;34.97;;;;;;;12.10;66.09;98360.91;10377153;28;20056;-57
2022/01/02 12:19:10;;;;;;;35.10;26.85;;;;;;;12.17;65.37;98349.66;10376708;28;20634;-57
2022/01/02 12:24:12;;;;;;;27.10;23.27;;;;;;;12.27;63.97;98335.84;10358158;28;20053;-57
2022/01/02 12:29:14;;;;;;;25.52;21.33;;;;;;;12.39;62.93;98335.00;10334643;28;20085;-57
2022/01/02 12:34:19;;;;;;;21.88;17.98;;;;;;;12.43;62.05;98328.03;10336249;28;20150;-57
2022/01/02 12:39:40;;;;;;;27.67;21.30;;;;;;;12.53;61.60;98324.56;10336607;28;20069;-57
2022/01/02 12:44:40;;;;;;;18.35;13.15;;;;;;;12.48;60.81;98306.34;10353337;28;20091;-57
2022/01/02 12:49:41;;;;;;;16.73;11.98;;;;;;;12.63;58.15;98313.31;10372340;28;20061;-57
2022/01/02 12:54:42;;;;;;;14.25;11.10;;;;;;;12.80;58.42;98302.00;10372677;28;20564;-57
2022/01/02 12:59:46;;;;;;;13.13;11.23;;;;;;;12.92;57.12;98313.25;10372503;28;20059;-57
2022/01/02 13:04:51;;;;;;;14.50;11.57;;;;;;;13.01;56.25;98307.19;10372189;28;20471;-57
2022/01/02 13:09:55;;;;;;;14.43;10.55;;;;;;;13.08;56.77;98314.09;10369126;28;20064;-57
2022/01/02 13:14:59;;;;;;;11.68;8.77;;;;;;;13.09;56.64;98323.69;10369971;28;20583;-57
2022/01/02 13:20:00;;;;;;;15.88;12.73;;;;;;;13.04;56.35;98324.53;10366798;28;20530;-57
2022/01/02 13:25:11;;;;;;;12.73;9.90;;;;;;;13.17;56.78;98317.59;10359743;28;20105;-57
2022/01/02 13:30:16;;;;;;;11.65;10.27;;;;;;;13.20;57.25;98318.41;10371963;28;20149;-57
2022/01/02 13:35:20;;;;;;;15.55;12.05;;;;;;;13.17;57.36;98320.19;10367092;28;20449;-57
2022/01/02 13:40:18;;;;;;;14.95;11.23;;;;;;;13.13;57.01;98314.09;10372600;28;20064;-57
2022/01/02 13:45:27;;;;;;;14.77;10.15;;;;;;;13.04;57.05;98312.38;10373194;28;20040;-57
2022/01/02 13:50:29;;;;;;;18.20;13.50;;;;;;;12.94;56.97;98314.13;10370075;28;20064;-57
2022/01/02 13:55:32;;;;;;;19.05;13.25;;;;;;;12.85;57.41;98308.06;10373736;28;20076;-58
2022/01/02 14:00:31;;;;;;;13.00;9.85;;;;;;;12.77;57.21;98307.22;10335652;28;20512;-57
2022/01/02 14:05:44;;;;;;;13.63;10.07;;;;;;;12.64;56.72;98298.53;10366204;28;20064;-57
2022/01/02 14:10:44;;;;;;;15.02;12.50;;;;;;;12.29;56.74;98278.56;10373703;28;20072;-57
2022/01/02 14:15:58;;;;;;;19.13;13.73;;;;;;;12.32;57.05;98303.72;10372182;28;20057;-57
2022/01/02 14:21:01;;;;;;;17.98;13.48;;;;;;;12.15;57.19;98290.69;10355839;28;20115;-57
2022/01/02 14:26:00;;;;;;;16.48;12.40;;;;;;;12.07;57.30;98314.09;10367056;28;20497;-57
2022/01/02 14:30:59;;;;;;;14.82;10.95;;;;;;;11.88;57.51;98316.63;10368977;28;20068;-57
2022/01/02 14:35:58;;;;;;;15.95;12.20;;;;;;;11.71;57.72;98320.03;10369425;28;20095;-57
2022/01/02 14:40:57;;;;;;;22.27;15.90;;;;;;;11.38;58.55;98306.03;10368023;28;20065;-57
2022/01/02 14:45:56;;;;;;;24.50;18.15;;;;;;;11.29;58.61;98319.00;10359480;28;20040;-58
2022/01/02 14:50:55;;;;;;;32.78;21.67;;;;;;;11.04;59.36;98305.88;10364319;28;20491;-57
2022/01/02 14:55:54;;;;;;;22.20;16.42;;;;;;;10.88;60.11;98320.50;10367684;28;20090;-57
2022/01/02 15:00:55;;;;;;;26.65;19.27;;;;;;;10.55;61.88;98329.72;10370551;28;20115;-57
2022/01/02 15:05:54;;;;;;;46.72;31.67;;;;;;;10.31;62.99;98316.56;10366273;28;20049;-57
2022/01/02 15:10:53;;;;;;;54.20;40.05;;;;;;;10.01;64.25;98317.13;10370520;28;20021;-57
2022/01/02 15:15:52;;;;;;;56.72;41.83;;;;;;;9.58;65.86;98309.72;10371756;28;20061;-57
2022/01/02 15:20:51;;;;;;;55.30;39.95;;;;;;;9.38;67.12;98324.16;10373051;28;20110;-57
2022/01/02 15:25:50;;;;;;;50.05;37.63;;;;;;;9.08;68.04;98317.69;10375660;28;20036;-57
2022/01/02 15:30:49;;;;;;;49.83;37.13;;;;;;;8.85;68.69;98319.94;10372795;28;20484;-57
2022/01/02 15:35:48;;;;;;;51.50;39.33;;;;;;;8.63;69.58;98308.41;10374920;28;20489;-57
2022/01/02 15:40:47;;;;;;;64.43;46.83;;;;;;;8.40;70.78;98319.25;10375797;28;20435;-57
2022/01/02 15:45:46;;;;;;;74.68;54.30;;;;;;;8.18;70.96;98318.03;10374484;28;20035;-57
2022/01/02 15:50:45;;;;;;;67.32;50.70;;;;;;;7.97;71.52;98325.41;10376239;28;20060;-57
2022/01/02 15:55:44;;;;;;;55.17;40.70;;;;;;;7.74;72.19;98299.13;10376011;28;20116;-57
2022/01/02 16:00:43;;;;;;;59.90;45.65;;;;;;;7.64;73.32;98303.25;10375728;28;20064;-57
2022/01/02 16:05:43;;;;;;;70.68;55.20;;;;;;;7.50;73.50;98302.97;10375973;28;20052;-57
2022/01/02 16:10:42;;;;;;;66.32;51.28;;;;;;;7.33;74.62;98301.69;10369385;28;20440;-57
2022/01/02 16:15:43;;;;;;;88.80;68.60;;;;;;;7.09;76.75;98302.06;10367106;28;20123;-57
2022/01/02 16:20:43;;;;;;;119.32;89.50;;;;;;;7.00;76.53;98305.31;10370480;28;20132;-57
2022/01/02 16:25:42;;;;;;;99.72;76.05;;;;;;;6.99;76.97;98306.16;10374909;28;20061;-57
2022/01/02 16:30:45;;;;;;;191.63;140.20;;;;;;;6.83;77.02;98300.66;10365520;28;20164;-57
2022/01/02 16:35:46;;;;;;;176.77;123.35;;;;;;;6.79;77.11;98303.13;10372445;28;20065;-57
2022/01/02 16:40:47;;;;;;;157.55;111.43;;;;;;;6.70;77.50;98293.50;10361328;28;20472;-57
2022/01/02 16:45:47;;;;;;;239.68;166.40;;;;;;;6.46;78.40;98277.44;10376058;28;20065;-57
2022/01/02 16:50:46;;;;;;;219.50;157.55;;;;;;;6.46;79.03;98296.34;10372090;28;20502;-57
2022/01/02 16:55:45;;;;;;;237.85;166.73;;;;;;;6.40;78.73;98285.91;10369484;28;20076;-57
2022/01/02 17:00:45;;;;;;;217.18;157.80;;;;;;;6.24;79.62;98287.22;10370127;28;20043;-57
2022/01/02 17:05:43;;;;;;;219.23;154.25;;;;;;;6.14;79.44;98285.25;10364640;28;20100;-57
2022/01/02 17:10:43;;;;;;;166.38;122.18;;;;;;;5.93;79.73;98270.09;10374632;28;20036;-57
2022/01/02 17:15:42;;;;;;;172.45;129.35;;;;;;;5.92;80.40;98283.84;10370328;28;20053;-57
2022/01/02 17:20:41;;;;;;;145.77;102.82;;;;;;;5.86;80.21;98289.72;10373579;28;20060;-57
2022/01/02 17:25:41;;;;;;;149.27;107.30;;;;;;;5.69;80.40;98260.06;10372844;28;20064;-56
2022/01/02 17:30:40;;;;;;;140.05;104.68;;;;;;;5.44;81.07;98259.41;10363106;28;20068;-57
2022/01/02 17:35:41;;;;;;;148.55;105.78;;;;;;;5.45;81.41;98273.16;10370710;28;20087;-57
2022/01/02 17:40:39;;;;;;;140.57;100.03;;;;;;;5.39;81.31;98266.13;10373766;28;20063;-57
2022/01/02 17:45:41;;;;;;;172.82;122.07;;;;;;;5.32;82.09;98264.19;10369421;28;20024;-57
2022/01/02 17:50:40;;;;;;;191.48;137.32;;;;;;;5.22;82.53;98255.34;10354924;28;20426;-57
2022/01/02 17:55:39;;;;;;;176.30;126.63;;;;;;;5.08;82.54;98242.09;10333747;28;20496;-57
2022/01/02 18:00:38;;;;;;;187.27;129.57;;;;;;;5.04;82.27;98247.09;10332545;28;20079;-57
2022/01/02 18:05:37;;;;;;;214.65;149.77;;;;;;;4.95;82.64;98247.72;10331307;28;20045;-57
2022/01/02 18:10:37;;;;;;;223.30;151.07;;;;;;;4.84;83.27;98238.78;10366528;28;20025;-57
2022/01/02 18:15:36;;;;;;;228.95;159.45;;;;;;;4.69;83.25;98211.81;10365030;28;20543;-57
2022/01/02 18:20:37;;;;;;;248.25;169.00;;;;;;;4.75;83.39;98216.25;10369168;28;20841;-57
2022/01/02 18:25:40;;;;;;;240.43;163.68;;;;;;;4.60;83.83;98208.09;10361963;28;20083;-57
2022/01/02 18:30:40;;;;;;;224.40;154.63;;;;;;;4.59;84.15;98207.19;10369786;28;20087;-57
2022/01/02 18:35:39;;;;;;;252.13;170.93;;;;;;;4.59;84.25;98196.91;10372153;28;20064;-57
2022/01/02 18:40:42;;;;;;;246.38;168.98;;;;;;;4.49;84.72;98185.50;10373364;28;20052;-57
2022/01/02 18:45:42;;;;;;;275.35;191.48;;;;;;;4.46;85.21;98187.13;10367973;28;20049;-57
2022/01/02 18:50:41;;;;;;;;;;;;;;;4.45;84.98;98185.38;10372518;28;20816;-57
2022/01/02 18:55:40;;;;;;;376.35;265.30;;;;;;;4.28;85.71;98185.72;10379980;28;20379;-57
2022/01/02 19:00:40;;;;;;;469.60;329.45;;;;;;;4.29;85.93;98187.50;10378266;28;20056;-57
2022/01/02 19:05:39;;;;;;;434.83;305.05;;;;;;;4.27;85.79;98165.16;10377625;28;20065;-57
2022/01/02 19:10:39;;;;;;;371.25;251.85;;;;;;;4.24;85.96;98172.75;10374779;28;20813;-57
2022/01/02 19:15:38;;;;;;;304.33;206.55;;;;;;;4.23;86.43;98166.72;10371737;28;20115;-57
2022/01/02 19:20:39;;;;;;;325.83;226.93;;;;;;;4.16;87.04;98149.41;10376670;28;20060;-56
2022/01/02 19:25:38;;;;;;;270.50;183.05;;;;;;;4.35;86.83;98160.22;10373913;28;20472;-57
2022/01/02 19:30:37;;;;;;;256.80;177.80;;;;;;;4.43;87.15;98151.94;10375827;28;20091;-57
2022/01/02 19:35:37;;;;;;;251.27;176.70;;;;;;;4.46;86.28;98153.72;10377070;28;20057;-56
2022/01/02 19:40:36;;;;;;;;;;;;;;;4.46;85.96;98157.16;10378109;28;20068;-57
2022/01/02 19:45:37;;;;;;;231.45;154.98;;;;;;;4.39;85.75;98155.22;10362558;28;19916;-57
2022/01/02 19:50:40;;;;;;;118.15;84.03;;;;;;;4.52;86.84;98153.00;10375970;28;20481;-57
2022/01/02 19:55:39;;;;;;;57.88;40.60;;;;;;;4.85;87.27;98147.97;10358005;28;20120;-57
2022/01/02 20:00:38;;;;;;;128.50;88.72;;;;;;;5.13;86.27;98135.06;10370314;28;20031;-57
2022/01/02 20:05:37;;;;;;;92.05;63.13;;;;;;;5.22;85.34;98125.84;10375299;28;20508;-57
2022/01/02 20:10:36;;;;;;;38.78;28.13;;;;;;;5.29;85.47;98120.03;10358040;28;20139;-57
2022/01/02 20:15:35;;;;;;;24.50;17.27;;;;;;;5.54;85.09;98104.34;10371890;28;20049;-57
2022/01/02 20:20:35;;;;;;;17.75;12.32;;;;;;;5.88;84.46;98106.84;10366207;28;20400;-57
2022/01/02 20:25:34;;;;;;;12.95;8.90;;;;;;;6.15;84.01;98102.34;10366841;28;20087;-57
2022/01/02 20:30:34;;;;;;;10.63;7.82;;;;;;;6.46;83.03;98096.97;10375193;28;20088;-57
2022/01/02 20:35:35;;;;;;;10.18;7.57;;;;;;;6.70;81.79;98087.16;10373835;28;20601;-57
2022/01/02 20:40:35;;;;;;;11.88;8.30;;;;;;;6.85;81.51;98089.16;10376286;28;20061;-57
2022/01/02 20:45:35;;;;;;;12.60;8.45;;;;;;;6.99;80.52;98084.25;10369021;28;20108;-57
2022/01/02 20:50:48;;;;;;;10.57;7.40;;;;;;;7.19;79.36;98088.09;10374194;28;20087;-57
2022/01/02 20:55:47;;;;;;;11.02;7.53;;;;;;;7.34;78.26;98077.16;10373729;28;20075;-57
2022/01/02 21:00:47;;;;;;;11.00;7.68;;;;;;;7.59;77.50;98087.88;10375244;28;20071;-57
2022/01/02 21:05:49;;;;;;;11.73;8.13;;;;;;;7.56;76.74;98080.97;10371999;28;20072;-57
2022/01/02 21:10:49;;;;;;;15.13;10.10;;;;;;;7.61;76.67;98088.78;10364936;28;20076;-57
2022/01/02 21:15:48;;;;;;;15.80;9.80;;;;;;;7.57;75.69;98085.31;10371965;28;20057;-57
2022/01/02 21:20:48;;;;;;;15.20;10.45;;;;;;;7.56;75.92;98078.38;10371736;28;20025;-57
2022/01/02 21:25:47;;;;;;;10.57;7.35;;;;;;;7.53;75.31;98075.75;10367175;28;20511;-57
2022/01/02 21:30:46;;;;;;;18.23;11.93;;;;;;;7.57;74.49;98064.66;10374002;28;20500;-57
2022/01/02 21:35:45;;;;;;;18.65;12.18;;;;;;;7.55;74.39;98050.84;10374069;28;20060;-57
2022/01/02 21:40:45;;;;;;;17.23;11.75;;;;;;;7.60;73.97;98062.09;10373537;28;20061;-57
2022/01/02 21:45:44;;;;;;;13.75;9.68;;;;;;;7.50;73.96;98049.91;10372454;28;20071;-57
2022/01/02 21:50:44;;;;;;;15.43;11.65;;;;;;;7.46;74.10;98048.09;10359908;28;20032;-57
2022/01/02 21:55:44;;;;;;;14.80;10.38;;;;;;;7.31;74.01;98034.91;10355987;28;20489;-57
2022/01/02 22:00:47;;;;;;;38.08;33.90;;;;;;;7.31;73.41;98033.22;10364469;28;20940;-57
2022/01/02 22:05:57;;;;;;;15.80;10.70;;;;;;;7.45;73.76;98039.50;10363058;28;20125;-57
2022/01/02 22:10:57;;;;;;;16.10;11.38;;;;;;;7.43;73.07;98025.69;10339959;28;20508;-57
2022/01/02 22:15:56;;;;;;;19.75;12.50;;;;;;;7.37;73.31;98011.78;10337826;28;20192;-57
2022/01/02 22:20:57;;;;;;;19.48;12.80;;;;;;;7.30;73.29;98017.69;10348524;28;20131;-57
2022/01/02 22:25:58;;;;;;;17.90;13.43;;;;;;;7.23;73.68;98011.56;10364273;28;20801;-57
2022/01/02 22:30:57;;;;;;;27.02;18.52;;;;;;;6.97;73.72;97985.31;10362062;28;20130;-57
2022/01/02 22:35:56;;;;;;;20.52;14.32;;;;;;;7.09;73.14;98003.59;10410035;28;20127;-57
2022/01/02 22:40:55;;;;;;;39.75;28.73;;;;;;;6.98;73.41;97999.94;10412014;28;20060;-57
2022/01/02 22:45:58;;;;;;;51.40;34.58;;;;;;;6.72;74.32;97992.63;10409741;28;20036;-57
2022/01/02 22:50:59;;;;;;;51.40;32.88;;;;;;;6.39;74.32;97975.69;10404895;28;20514;-57